World of Logs combat log analyzer allows gamers to save, share and analyze their raiding experiences conveniently and thoroughly in the Blizzard MMO World of Warcraft. If you're new here, make sure you check out the tour for a 1 minute introduction. If you have any questions, we're happy to answer them on the forums.

DPS HPS
Odyn
Helya
Guarm
Reports for General Nazgrim - statistics
# Date Time Damage DPS Guild Realm
1 09 Oct 2014 01:21 532.29M 6534897.0 Entropy EU-Bronzebeard
2 09 Oct 2014 01:21 532.29M 6534415.7 Entropy EU-Bronzebeard
3 09 Oct 2014 01:21 532.29M 6533613.6 Entropy EU-Bronzebeard
4 17 Sep 2014 01:32 552.53M 5989183.1 Memento EU-Frostwhisper
5 05 Oct 2014 01:33 551.82M 5920900.3 Such a Thing EU-Thrall
6 22 Jun 2014 01:37 552.56M 5694464.5 DarkStorm EU-Zenedar
7 08 Oct 2014 01:38 553.95M 5615731.6 Spooncake's logs EU-Twilight's Hammer
8 27 Sep 2014 01:39 553.26M 5534846.9 Orcy US-Mal'Ganis
9 05 Oct 2014 01:40 553.63M 5509314.4 Orcy US-Mal'Ganis
10 08 Oct 2014 01:43 553.83M 5344579.4 Casual EU-Frostwolf
11 08 Oct 2014 01:43 553.83M 5341950.3 Casual EU-Frostwolf
12 08 Oct 2014 01:43 553.83M 5339890.1 Casual EU-Frostwolf
13 30 Sep 2014 01:44 561.66M 5371983.9 vaironhead ftw EU-Ревущий фьорд
14 30 Sep 2014 01:44 561.66M 5371470.1 Kimanshy Logs EU-Свежеватель Душ
15 10 Sep 2014 01:44 632.40M 6044969.7 Memento EU-Frostwhisper
16 12 Oct 2014 01:45 550.84M 5229046.3 Such a Thing EU-Thrall
17 07 Sep 2014 01:45 554.28M 5241445.2 Such a Thing EU-Thrall
18 28 Sep 2014 01:46 551.96M 5202467.3 Such a Thing EU-Thrall
19 25 Sep 2014 01:47 682.16M 6332629.0 Malevolent EU-Blackmoore
20 01 Oct 2014 01:48 567.19M 5245505.0 Arcadia EU-Illidan
21 03 Sep 2014 01:48 625.45M 5741207.8 Entropy EU-Bronzebeard
22 03 Oct 2014 01:49 559.96M 5103736.7 Day's Reports EU-Разувий
23 03 Oct 2014 01:49 559.96M 5103039.0 Чек и ГО EU-Ревущий фьорд
24 03 Oct 2014 01:49 559.96M 5101551.3 Kimanshy Logs EU-Свежеватель Душ
25 10 Oct 2014 01:51 566.50M 5087070.8 Синергетика EU-Ревущий фьорд
26 10 Oct 2014 01:51 566.50M 5085563.8 vaironhead ftw EU-Ревущий фьорд
27 28 Sep 2014 01:54 580.90M 5072525.0 Casual EU-Frostwolf
28 24 Sep 2014 01:54 569.71M 4956304.0 Jeanmichèl-Michel EU-Eitrigg
29 24 Sep 2014 01:54 569.71M 4956045.3 Arcadia EU-Illidan
30 01 Oct 2014 01:55 633.56M 5471912.0 Casual EU-Frostwolf
31 01 Oct 2014 01:55 633.91M 5473171.4 Casual EU-Frostwolf
32 17 Sep 2014 01:57 641.93M 5452041.7 Casual EU-Frostwolf
33 14 Sep 2014 01:57 558.18M 4740511.9 Such a Thing EU-Thrall
34 08 Oct 2014 02:02 649.36M 5283535.4 Exploding Labrats EU-Stormreaver
35 18 Sep 2014 02:05 583.13M 4638629.9 Dunning Kruger EU-Frostwolf
36 02 Oct 2014 02:06 582.72M 4616522.0 Dunning Kruger EU-Frostwolf
37 25 Sep 2014 02:06 574.89M 4540046.5 Dunning Kruger EU-Frostwolf
38 17 Sep 2014 02:09 580.56M 4480431.0 Malevolent EU-Blackmoore
39 17 Sep 2014 02:09 580.57M 4479919.0 Malevolent EU-Blackmoore
40 01 Oct 2014 02:10 566.86M 4353063.9 Синергетика EU-Ревущий фьорд
41 21 Sep 2014 02:10 578.44M 4441792.0 Pieces EU-Grim Batol
42 09 Oct 2014 02:10 579.43M 4448845.8 Dunning Kruger EU-Frostwolf
43 09 Sep 2014 02:10 580.20M 4442521.3 Primarch - Rendrak US-Frostwolf
44 17 Sep 2014 02:11 568.09M 4319380.6 Jeanmichèl-Michel EU-Eitrigg
45 09 Sep 2014 02:13 647.92M 4866399.0 Kolikolla Kultaa EU-Doomhammer
46 23 Sep 2014 02:13 648.24M 4857986.5 Vision US-Kel'Thuzad
47 10 Sep 2014 02:16 585.63M 4278214.9 Maccei's log EU-Arathor
48 08 Oct 2014 02:18 584.57M 4228265.6 Merge EU-Silvermoon
49 13 Sep 2014 02:19 668.81M 4797041.6 Timeless EU-Illidan
50 08 Oct 2014 02:19 642.75M 4608408.5 Arctic US-Aerie Peak
51 14 Sep 2014 02:20 585.44M 4175012.4 Essentia EU-C'Thun
52 30 Sep 2014 02:20 666.31M 4749222.7 Primarch - Aerniskliwbi US-Frostwolf
53 30 Aug 2014 02:21 666.80M 4726003.0 Timeless EU-Illidan
54 01 Oct 2014 02:21 656.57M 4645313.1 Discret EU-Draenor
55 01 Oct 2014 02:21 656.57M 4642192.9 Thegodofdmg EU-Tarren Mill
56 09 Sep 2014 02:21 588.50M 4158810.5 DEM unplugged EU-Draenor
57 21 Aug 2014 02:22 585.18M 4111744.2 Entropy EU-Bronzebeard
58 28 Sep 2014 02:23 659.08M 4593086.0 untitled spreadsheet EU-Eredar
59 04 Oct 2014 02:24 584.20M 4032172.2 SMaRT /).(\ EU-Черный Шрам
60 04 Oct 2014 02:24 584.20M 4032144.3 Рак Гейминг EU-Свежеватель Душ
61 14 Sep 2014 02:25 667.09M 4583856.4 untitled spreadsheet EU-Eredar
62 11 Sep 2014 02:26 584.50M 3986915.4 Merge EU-Silvermoon
63 11 Sep 2014 02:26 584.52M 3984925.8 Merge EU-Silvermoon
64 20 Sep 2014 02:27 605.61M 4114673.1 Timeless EU-Illidan
65 20 Sep 2014 02:27 605.61M 4114309.7 Timeless EU-Illidan
66 06 Oct 2014 02:27 658.06M 4448433.2 Sparks EU-The Maelstrom
67 06 Oct 2014 02:27 658.03M 4447070.6 Pulverlogs EU-The Maelstrom
68 17 Sep 2014 02:28 582.94M 3934486.2 Vanity EU-Mal'Ganis
69 17 Sep 2014 02:28 582.91M 3929752.9 Vanity EU-Mal'Ganis
70 24 Sep 2014 02:28 651.62M 4379933.3 Thegodofdmg EU-Tarren Mill
71 07 Sep 2014 02:29 649.32M 4355787.3 untitled spreadsheet EU-Eredar
72 01 Oct 2014 02:29 602.00M 4037665.4 Premonition EU-C'Thun
73 20 Sep 2014 02:29 648.81M 4338441.4 macht DRUCK EU-Mal'Ganis
74 20 Sep 2014 02:29 648.86M 4335009.1 Tempest EU-Azshara
75 12 Sep 2014 02:29 650.81M 4345219.9 Бення EU-Ревущий фьорд
76 12 Sep 2014 02:29 650.81M 4344523.7 Kimanshy Logs EU-Свежеватель Душ
77 17 Sep 2014 02:29 721.21M 4813143.7 Entropy EU-Bronzebeard
78 17 Sep 2014 02:29 721.21M 4812597.6 Entropy EU-Bronzebeard
79 21 Sep 2014 02:29 596.16M 3977201.4 Pony Logs EU-Вечная Песня
80 24 Sep 2014 02:29 605.09M 4036736.8 Merge EU-Silvermoon
81 01 Oct 2014 02:30 647.56M 4308007.1 Arctic US-Aerie Peak
82 29 Sep 2014 02:30 600.84M 3979198.6 D o T EU-Frostwolf
83 17 Sep 2014 02:31 583.45M 3861214.3 Arctic US-Aerie Peak
84 10 Sep 2014 02:31 661.12M 4362894.8 Malevolent EU-Blackmoore
85 21 Sep 2014 02:31 586.49M 3860082.2 Eleven Degrees EU-Lothar
86 01 Oct 2014 02:32 584.00M 3827103.5 woofwoofbrigaade US-Drakkari
87 30 Sep 2014 02:32 584.00M 3827103.5 Eztelle US-Mal'Ganis
88 16 Sep 2014 02:33 659.16M 4293352.2 IhaveNoideaWhatimDoing US-Bleeding Hollow
89 10 Sep 2014 02:34 588.31M 3812911.6 Flawless Guild US-Azralon
90 10 Sep 2014 02:34 588.31M 3812911.6 Flawless Guild US-Azralon
91 10 Sep 2014 02:34 588.31M 3812911.6 Flawless Guild US-Azralon
92 17 Sep 2014 02:34 657.14M 4258296.3 Windshock EU-Arathor
93 30 Sep 2014 02:35 651.32M 4198433.0 Exodus US-Dark Iron
94 08 Oct 2014 02:35 619.46M 3987816.8 Divide & Impera EU-Ysondre
95 01 Oct 2014 02:35 589.49M 3791966.1 Eleven Degrees EU-Lothar
96 19 Sep 2014 02:36 733.28M 4689144.7 HadeAndKo EU-Подземье
97 08 Oct 2014 02:36 585.34M 3742223.1 Intuition EU-Boulderfist
98 19 Sep 2014 02:36 734.05M 4692905.7 бесы EU-Свежеватель Душ
99 19 Sep 2014 02:36 733.03M 4685901.0 Kimanshy Logs EU-Свежеватель Душ
100 20 Sep 2014 02:36 582.15M 3713181.3 Рак Гейминг EU-Свежеватель Душ

Please do not close the page with the ad you want to report.

I've posted a guide on how to report misbehaving ads on the forum. Please follow the instructions and help make the internet a safer place. Thanks for you time.